createdAt,value
2023-02-27T00:00:47.040Z,82.80
2023-02-27T00:03:14.328Z,82.60
2023-02-27T00:05:42.421Z,82.80
2023-02-27T00:08:09.678Z,82.50
2023-02-27T00:10:36.939Z,82.40
2023-02-27T00:13:04.453Z,82.30
2023-02-27T00:15:52.212Z,82.30
2023-02-27T00:18:19.543Z,82.30
2023-02-27T00:20:46.757Z,82.20
2023-02-27T00:23:15.784Z,82.20
2023-02-27T00:25:43.032Z,82.40
2023-02-27T00:28:10.240Z,82.10
2023-02-27T00:30:37.449Z,82.40
2023-02-27T00:33:05.106Z,82.70
2023-02-27T00:35:33.744Z,82.50
2023-02-27T00:38:01.466Z,82.90
2023-02-27T00:40:28.972Z,83.30
2023-02-27T00:42:56.164Z,83.40
2023-02-27T00:45:23.430Z,82.90
2023-02-27T00:47:51.117Z,82.50
2023-02-27T00:50:18.483Z,83.10
2023-02-27T00:52:45.752Z,82.10
2023-02-27T00:55:13.133Z,82.10
2023-02-27T00:57:40.751Z,81.90
2023-02-27T01:00:10.204Z,82.30
2023-02-27T01:02:37.546Z,82.30
2023-02-27T01:05:05.259Z,82.40
2023-02-27T01:07:32.520Z,82.10
2023-02-27T01:10:02.187Z,81.70
2023-02-27T01:12:29.436Z,81.30
2023-02-27T01:14:56.664Z,81.00
2023-02-27T01:17:24.000Z,81.10
2023-02-27T01:19:51.346Z,81.10
2023-02-27T01:22:19.001Z,81.00
2023-02-27T01:24:46.203Z,81.00
2023-02-27T01:27:14.052Z,80.90
2023-02-27T01:29:41.643Z,81.10
2023-02-27T01:32:08.978Z,81.20
2023-02-27T01:34:36.277Z,81.40
2023-02-27T01:37:03.784Z,81.40
2023-02-27T01:39:32.841Z,81.70
2023-02-27T01:42:00.996Z,81.40
2023-02-27T01:44:30.927Z,80.90
2023-02-27T01:46:58.223Z,80.30
2023-02-27T01:49:31.248Z,80.80
2023-02-27T01:52:06.015Z,81.20
2023-02-27T01:54:38.121Z,81.20
2023-02-27T01:57:06.756Z,81.30
2023-02-27T01:59:41.029Z,81.40
2023-02-27T02:02:16.838Z,81.40
2023-02-27T02:04:44.130Z,81.50
2023-02-27T02:07:18.595Z,81.40
2023-02-27T02:09:49.972Z,81.40
2023-02-27T02:12:21.037Z,81.20
2023-02-27T02:14:48.402Z,81.50
2023-02-27T02:17:30.432Z,81.70
2023-02-27T02:20:26.389Z,82.10
2023-02-27T02:23:17.762Z,82.30
2023-02-27T02:26:14.872Z,82.50
2023-02-27T02:29:09.948Z,82.40
2023-02-27T02:31:55.131Z,82.20
2023-02-27T02:34:48.942Z,82.50
2023-02-27T02:37:31.044Z,81.90
2023-02-27T02:39:58.314Z,81.30
2023-02-27T02:42:35.401Z,81.50
2023-02-27T02:45:27.330Z,81.30
2023-02-27T02:48:17.275Z,81.10
2023-02-27T02:51:01.064Z,81.20
2023-02-27T02:53:50.349Z,81.50
2023-02-27T02:56:29.176Z,81.60
2023-02-27T02:59:23.678Z,81.50
2023-02-27T03:01:53.884Z,81.70
2023-02-27T03:04:31.581Z,81.60
2023-02-27T03:07:08.226Z,82.10
2023-02-27T03:09:42.506Z,82.20
2023-02-27T03:12:14.024Z,82.70
2023-02-27T03:14:57.558Z,82.70
2023-02-27T03:17:40.957Z,83.00
2023-02-27T03:20:12.386Z,82.90
2023-02-27T03:22:44.446Z,82.80
2023-02-27T03:25:13.747Z,83.00
2023-02-27T03:27:59.823Z,82.80
2023-02-27T03:30:38.084Z,82.80
2023-02-27T03:33:27.068Z,82.80
2023-02-27T03:36:12.088Z,82.70
2023-02-27T03:38:51.832Z,82.70
2023-02-27T03:41:31.333Z,82.80
2023-02-27T03:44:28.698Z,82.90
2023-02-27T03:46:57.171Z,82.90
2023-02-27T03:49:24.652Z,82.80
2023-02-27T03:51:51.930Z,82.90
2023-02-27T03:54:25.639Z,82.90
2023-02-27T03:57:07.650Z,82.90
2023-02-27T03:59:35.924Z,83.00
2023-02-27T04:02:04.436Z,82.90
2023-02-27T04:04:33.583Z,83.10
2023-02-27T04:07:38.051Z,83.20
2023-02-27T04:10:16.312Z,83.60
2023-02-27T04:13:13.668Z,84.00
2023-02-27T04:16:17.005Z,84.50
2023-02-27T04:19:05.809Z,85.10
2023-02-27T04:21:55.058Z,85.30
2023-02-27T04:24:55.369Z,85.60
2023-02-27T04:27:38.131Z,85.90
2023-02-27T04:30:29.772Z,86.10
2023-02-27T04:33:35.141Z,86.50
2023-02-27T04:36:22.852Z,86.40
2023-02-27T04:39:06.095Z,86.50
2023-02-27T04:42:06.904Z,86.40
2023-02-27T04:44:37.282Z,86.70
2023-02-27T04:47:06.801Z,86.80
2023-02-27T04:49:51.730Z,86.80
2023-02-27T04:52:34.292Z,86.60
2023-02-27T04:55:11.383Z,86.20
2023-02-27T04:58:03.194Z,85.60
2023-02-27T05:00:31.996Z,85.50
2023-02-27T05:03:32.316Z,85.30
2023-02-27T05:06:02.061Z,85.50
2023-02-27T05:08:41.551Z,85.20
2023-02-27T05:11:20.373Z,85.00
2023-02-27T05:13:58.857Z,84.40
2023-02-27T05:16:33.093Z,84.00
2023-02-27T05:19:01.887Z,83.90
2023-02-27T05:21:44.249Z,83.90
2023-02-27T05:24:30.684Z,83.80
2023-02-27T05:27:19.761Z,83.90
2023-02-27T05:29:53.556Z,84.30
2023-02-27T05:32:33.822Z,84.60
2023-02-27T05:35:19.472Z,85.00
2023-02-27T05:37:53.668Z,85.00
2023-02-27T05:40:34.156Z,84.90
2023-02-27T05:43:09.017Z,85.00
2023-02-27T05:45:39.333Z,85.10
2023-02-27T05:48:14.747Z,85.30
2023-02-27T05:50:43.604Z,85.50
2023-02-27T05:53:17.066Z,85.60
2023-02-27T05:55:49.276Z,85.80
2023-02-27T05:58:27.502Z,86.00
2023-02-27T06:00:58.741Z,86.10
2023-02-27T06:03:31.644Z,86.10
2023-02-27T06:06:00.892Z,86.20
2023-02-27T06:08:38.521Z,86.10
2023-02-27T06:11:31.953Z,86.10
2023-02-27T06:13:59.346Z,86.00
2023-02-27T06:16:53.026Z,85.90
2023-02-27T06:19:44.603Z,86.10
2023-02-27T06:22:12.347Z,86.20
2023-02-27T06:24:39.799Z,86.40
2023-02-27T06:27:12.684Z,86.40
2023-02-27T06:29:40.617Z,86.50
2023-02-27T06:32:08.158Z,86.70
2023-02-27T06:34:35.632Z,86.70
2023-02-27T06:37:04.327Z,86.60
2023-02-27T06:39:32.740Z,86.50
2023-02-27T06:42:00.142Z,86.50
2023-02-27T06:44:27.417Z,86.60
2023-02-27T06:46:54.899Z,86.60
2023-02-27T06:49:41.525Z,86.70
2023-02-27T06:52:09.238Z,87.00
2023-02-27T06:54:36.594Z,87.50
2023-02-27T06:57:04.003Z,87.70
2023-02-27T06:59:31.338Z,87.50
2023-02-27T07:03:01.849Z,87.80
2023-02-27T07:05:29.130Z,88.00
2023-02-27T07:07:58.618Z,87.70
2023-02-27T07:10:30.769Z,87.60
2023-02-27T07:12:58.123Z,87.30
2023-02-27T07:15:25.606Z,87.40
2023-02-27T07:17:54.924Z,87.50
2023-02-27T07:20:55.006Z,87.40
2023-02-27T07:23:23.653Z,87.40
2023-02-27T07:25:51.077Z,87.50
2023-02-27T07:28:19.007Z,87.80
2023-02-27T07:30:46.691Z,87.90
2023-02-27T07:33:14.069Z,88.00
2023-02-27T07:35:41.399Z,88.10
2023-02-27T07:38:08.711Z,87.50
2023-02-27T07:40:36.036Z,87.60
2023-02-27T07:43:03.384Z,87.20
2023-02-27T07:45:30.684Z,86.40
2023-02-27T07:47:58.036Z,84.90
2023-02-27T07:50:25.382Z,85.20
2023-02-27T07:52:53.217Z,84.70
2023-02-27T07:55:20.607Z,84.80
2023-02-27T07:57:48.053Z,84.70
2023-02-27T08:00:18.079Z,84.10
2023-02-27T08:02:45.517Z,83.30
2023-02-27T08:05:12.986Z,83.60
2023-02-27T08:07:40.280Z,83.40
2023-02-27T08:10:08.181Z,82.90
2023-02-27T08:12:35.712Z,82.20
2023-02-27T08:15:03.833Z,82.10
2023-02-27T08:17:31.430Z,82.20
2023-02-27T08:20:00.182Z,82.50
2023-02-27T08:22:38.688Z,82.50
2023-02-27T08:25:08.565Z,82.50
2023-02-27T08:27:35.825Z,82.90
2023-02-27T08:30:03.935Z,82.50
2023-02-27T08:32:31.536Z,82.10
2023-02-27T08:34:59.100Z,82.20
2023-02-27T08:37:29.481Z,82.10
2023-02-27T08:39:57.024Z,82.10
2023-02-27T08:42:27.061Z,81.80
2023-02-27T08:44:54.532Z,81.70
2023-02-27T08:47:22.321Z,81.80
2023-02-27T08:49:52.050Z,81.50
2023-02-27T08:52:19.518Z,81.40
2023-02-27T08:54:47.573Z,81.60
2023-02-27T08:57:15.327Z,81.00
2023-02-27T09:00:24.216Z,81.00
2023-02-27T09:02:51.635Z,81.00
2023-02-27T09:05:19.350Z,80.30
2023-02-27T09:07:46.872Z,80.20
2023-02-27T09:10:14.883Z,80.40
2023-02-27T09:12:43.031Z,80.10
2023-02-27T09:15:11.409Z,80.00
2023-02-27T09:17:39.238Z,79.20
2023-02-27T09:20:31.632Z,78.60
2023-02-27T09:22:59.667Z,78.70
2023-02-27T09:25:27.418Z,78.50
2023-02-27T09:27:55.137Z,77.90
2023-02-27T09:30:25.442Z,77.90
2023-02-27T09:32:52.731Z,77.40
2023-02-27T09:35:21.317Z,75.90
2023-02-27T09:37:49.566Z,75.80
2023-02-27T09:40:28.058Z,75.20
2023-02-27T09:43:00.741Z,74.90
2023-02-27T09:45:30.259Z,75.50
2023-02-27T09:48:08.476Z,74.50
2023-02-27T09:50:42.268Z,75.30
2023-02-27T09:53:18.890Z,75.10
2023-02-27T09:55:46.538Z,75.90
2023-02-27T09:58:26.361Z,75.60
2023-02-27T10:01:21.876Z,75.10
2023-02-27T10:04:24.024Z,75.10
2023-02-27T10:07:20.345Z,74.40
2023-02-27T10:10:15.563Z,73.60
2023-02-27T10:13:08.573Z,74.10
2023-02-27T10:15:51.584Z,74.10
2023-02-27T10:18:31.614Z,74.20
2023-02-27T10:21:08.189Z,73.90
2023-02-27T10:23:53.131Z,74.20
2023-02-27T10:26:24.022Z,73.10
2023-02-27T10:28:51.209Z,72.90
2023-02-27T10:31:23.723Z,72.20
2023-02-27T10:33:52.046Z,72.20
2023-02-27T10:36:33.041Z,70.60
2023-02-27T10:39:08.545Z,70.50
2023-02-27T10:41:36.602Z,72.20
2023-02-27T10:44:05.002Z,72.70
2023-02-27T10:46:34.993Z,73.30
2023-02-27T10:49:05.529Z,71.20
2023-02-27T10:51:38.094Z,72.30
2023-02-27T10:54:25.157Z,70.70
2023-02-27T10:57:01.632Z,70.90
2023-02-27T10:59:33.883Z,70.70
2023-02-27T11:02:17.896Z,71.30
2023-02-27T11:04:54.264Z,72.40
2023-02-27T11:07:31.979Z,71.60
2023-02-27T11:10:02.198Z,70.60
2023-02-27T11:12:32.715Z,69.80
2023-02-27T11:15:22.046Z,70.60
2023-02-27T11:17:49.311Z,70.70
2023-02-27T11:20:36.931Z,70.40
2023-02-27T11:23:15.421Z,69.70
2023-02-27T11:25:43.461Z,69.80
2023-02-27T11:28:29.688Z,68.90
2023-02-27T11:31:05.512Z,70.10
2023-02-27T11:33:39.733Z,70.20
2023-02-27T11:36:07.618Z,71.60
2023-02-27T11:38:39.261Z,67.60
2023-02-27T11:41:09.030Z,66.80
2023-02-27T11:43:48.380Z,63.20
2023-02-27T11:47:19.000Z,61.40
2023-02-27T11:50:13.004Z,58.20
2023-02-27T11:52:52.308Z,57.10
2023-02-27T11:55:24.348Z,55.60
2023-02-27T11:58:25.989Z,58.10
2023-02-27T12:01:02.637Z,59.10
2023-02-27T12:03:49.352Z,59.20
2023-02-27T12:06:21.532Z,61.20
2023-02-27T12:09:00.551Z,62.80
2023-02-27T12:11:34.580Z,64.30
2023-02-27T12:14:24.920Z,64.90
2023-02-27T12:16:58.768Z,62.80
2023-02-27T12:19:51.747Z,61.90
2023-02-27T12:22:31.073Z,58.20
2023-02-27T12:25:26.179Z,59.70
2023-02-27T12:28:12.243Z,61.20
2023-02-27T12:30:46.978Z,56.90
2023-02-27T12:33:49.506Z,59.50
2023-02-27T12:36:18.877Z,60.10
2023-02-27T12:38:46.408Z,60.40
2023-02-27T12:41:36.957Z,60.10
2023-02-27T12:44:28.244Z,60.80
2023-02-27T12:47:04.661Z,62.30
2023-02-27T12:49:51.498Z,62.30
2023-02-27T12:52:40.677Z,61.70
2023-02-27T12:55:17.629Z,62.20
2023-02-27T12:58:11.333Z,63.00
2023-02-27T13:00:50.786Z,63.00
2023-02-27T13:03:34.401Z,62.50
2023-02-27T13:06:20.609Z,62.80
2023-02-27T13:09:17.905Z,62.00
2023-02-27T13:12:03.477Z,62.90
2023-02-27T13:15:04.050Z,63.30
2023-02-27T13:17:41.374Z,64.70
2023-02-27T13:20:29.680Z,65.80
2023-02-27T13:23:15.397Z,64.70
2023-02-27T13:25:46.223Z,65.10
2023-02-27T13:28:16.960Z,64.80
2023-02-27T13:31:11.953Z,65.40
2023-02-27T13:33:45.216Z,63.70
2023-02-27T13:36:51.709Z,62.00
2023-02-27T13:39:40.895Z,62.80
2023-02-27T13:42:30.500Z,58.60
2023-02-27T13:44:58.485Z,58.30
2023-02-27T13:48:03.415Z,54.40
2023-02-27T13:50:30.543Z,54.40
2023-02-27T13:53:09.882Z,54.40
2023-02-27T13:55:37.679Z,55.80
2023-02-27T13:58:05.856Z,55.40
2023-02-27T14:00:35.494Z,54.30
2023-02-27T14:03:25.653Z,54.10
2023-02-27T14:05:56.155Z,53.80
2023-02-27T14:08:48.070Z,54.20
2023-02-27T14:11:55.186Z,51.00
2023-02-27T14:14:47.443Z,51.40
2023-02-27T14:17:37.740Z,51.20
2023-02-27T14:20:27.729Z,47.20
2023-02-27T14:23:17.098Z,48.40
2023-02-27T14:25:54.676Z,48.80
2023-02-27T14:28:30.731Z,41.90
2023-02-27T14:31:01.044Z,41.00
2023-02-27T14:33:48.161Z,39.20
2023-02-27T14:36:33.001Z,34.70
2023-02-27T14:39:01.879Z,33.00
2023-02-27T14:41:42.435Z,31.00
2023-02-27T14:44:25.548Z,26.90
2023-02-27T14:46:55.040Z,27.10
2023-02-27T14:49:30.617Z,26.70
2023-02-27T14:52:14.943Z,24.80
2023-02-27T14:54:44.759Z,25.60
2023-02-27T14:57:23.714Z,24.70
2023-02-27T14:59:52.915Z,25.40
2023-02-27T15:02:25.583Z,23.30
2023-02-27T15:05:01.817Z,22.80
2023-02-27T15:07:31.937Z,22.00
2023-02-27T15:10:05.134Z,23.10
2023-02-27T15:12:38.072Z,26.90
2023-02-27T15:15:10.097Z,30.70
2023-02-27T15:17:43.186Z,34.00
2023-02-27T15:20:27.347Z,36.40
2023-02-27T15:22:54.659Z,40.00
2023-02-27T15:25:29.983Z,42.60
2023-02-27T15:28:02.650Z,44.10
2023-02-27T15:30:30.535Z,45.60
2023-02-27T15:32:59.054Z,46.70
2023-02-27T15:35:34.919Z,47.90
2023-02-27T15:38:02.736Z,48.90
2023-02-27T15:40:32.619Z,50.00
2023-02-27T15:43:00.893Z,50.90
2023-02-27T15:45:34.879Z,51.00
2023-02-27T15:48:03.436Z,50.10
2023-02-27T15:50:37.657Z,50.90
2023-02-27T15:53:08.342Z,51.80
2023-02-27T15:55:57.455Z,52.50
2023-02-27T15:58:26.195Z,52.40
2023-02-27T16:01:04.881Z,52.70
2023-02-27T16:03:45.773Z,52.50
2023-02-27T16:06:33.539Z,52.70
2023-02-27T16:09:06.425Z,53.50
2023-02-27T16:11:38.527Z,53.40
2023-02-27T16:14:06.007Z,52.20
2023-02-27T16:16:38.738Z,53.00
2023-02-27T16:19:22.460Z,52.70
2023-02-27T16:22:14.858Z,49.80
2023-02-27T16:24:44.399Z,50.70
2023-02-27T16:27:26.599Z,51.20
2023-02-27T16:29:56.637Z,51.10
2023-02-27T16:32:44.173Z,51.00
2023-02-27T16:35:23.317Z,51.50
2023-02-27T16:37:51.489Z,52.30
2023-02-27T16:40:22.526Z,52.10
2023-02-27T16:42:51.781Z,52.20
2023-02-27T16:45:28.863Z,53.00
2023-02-27T16:47:58.593Z,54.00
2023-02-27T16:50:42.982Z,54.10
2023-02-27T16:53:10.199Z,54.70
2023-02-27T16:55:42.555Z,54.70
2023-02-27T16:58:16.876Z,55.20
2023-02-27T17:00:44.406Z,55.40
2023-02-27T17:03:11.645Z,56.10
2023-02-27T17:05:38.971Z,56.10
2023-02-27T17:08:06.154Z,55.60
2023-02-27T17:10:33.986Z,55.40
2023-02-27T17:13:01.259Z,55.80
2023-02-27T17:15:29.031Z,56.60
2023-02-27T17:17:56.223Z,56.60
2023-02-27T17:20:25.998Z,57.30
2023-02-27T17:22:53.133Z,57.50
2023-02-27T17:25:20.335Z,57.90
2023-02-27T17:27:47.544Z,57.90
2023-02-27T17:30:15.287Z,57.80
2023-02-27T17:32:42.496Z,58.40
2023-02-27T17:35:10.158Z,58.80
2023-02-27T17:37:37.732Z,59.20
2023-02-27T17:40:08.049Z,58.40
2023-02-27T17:42:36.811Z,58.40
2023-02-27T17:45:06.299Z,59.10
2023-02-27T17:47:34.091Z,58.90
2023-02-27T17:50:02.715Z,59.20
2023-02-27T17:52:30.037Z,59.80
2023-02-27T17:54:57.254Z,59.60
2023-02-27T17:57:26.476Z,59.20
2023-02-27T17:59:53.713Z,59.50
2023-02-27T18:02:21.255Z,60.20
2023-02-27T18:04:48.734Z,59.40
2023-02-27T18:07:15.935Z,59.30
2023-02-27T18:09:45.656Z,59.90
2023-02-27T18:12:12.843Z,60.10
2023-02-27T18:14:40.087Z,60.60
2023-02-27T18:17:11.891Z,60.90
2023-02-27T18:19:41.640Z,60.90
2023-02-27T18:22:15.099Z,61.30
2023-02-27T18:24:42.351Z,62.30
2023-02-27T18:27:09.615Z,62.40
2023-02-27T18:29:36.971Z,62.00
2023-02-27T18:32:04.444Z,61.90
2023-02-27T18:34:31.670Z,61.60
2023-02-27T18:36:58.919Z,62.30
2023-02-27T18:39:26.196Z,62.00
2023-02-27T18:41:53.389Z,62.00
2023-02-27T18:44:22.617Z,61.70
2023-02-27T18:46:50.915Z,61.50
2023-02-27T18:49:18.255Z,61.70
2023-02-27T18:51:45.412Z,62.00
2023-02-27T18:54:16.069Z,62.30
2023-02-27T18:56:43.280Z,61.90
2023-02-27T18:59:12.016Z,62.30
2023-02-27T19:01:39.485Z,62.20
2023-02-27T19:04:09.722Z,64.10
2023-02-27T19:06:42.138Z,63.70
2023-02-27T19:09:16.108Z,63.90
2023-02-27T19:11:45.727Z,63.90
2023-02-27T19:14:13.763Z,64.20
2023-02-27T19:16:41.080Z,65.50
2023-02-27T19:19:09.841Z,66.60
2023-02-27T19:21:37.576Z,67.60
2023-02-27T19:24:05.200Z,68.50
2023-02-27T19:26:34.201Z,69.10
2023-02-27T19:29:02.069Z,69.70
2023-02-27T19:31:30.745Z,69.90
2023-02-27T19:33:58.280Z,69.60
2023-02-27T19:36:28.492Z,69.40
2023-02-27T19:38:58.882Z,69.40
2023-02-27T19:41:27.039Z,69.90
2023-02-27T19:43:55.108Z,70.00
2023-02-27T19:46:27.114Z,70.00
2023-02-27T19:48:58.189Z,70.20
2023-02-27T19:51:26.365Z,70.50
2023-02-27T19:53:53.996Z,70.90
2023-02-27T19:56:23.896Z,70.50
2023-02-27T19:58:54.119Z,70.50
2023-02-27T20:01:32.642Z,70.80
2023-02-27T20:04:01.223Z,70.50
2023-02-27T20:06:30.820Z,70.40
2023-02-27T20:08:58.354Z,69.90
2023-02-27T20:11:32.033Z,69.80
2023-02-27T20:13:59.758Z,70.70
2023-02-27T20:16:34.455Z,71.20
2023-02-27T20:19:04.218Z,71.50
2023-02-27T20:21:33.071Z,71.70
2023-02-27T20:24:01.094Z,72.00
2023-02-27T20:26:40.487Z,72.50
2023-02-27T20:29:10.618Z,72.30
2023-02-27T20:31:39.435Z,72.00
2023-02-27T20:34:10.746Z,71.90
2023-02-27T20:36:39.535Z,72.20
2023-02-27T20:39:07.239Z,72.20
2023-02-27T20:41:34.915Z,72.80
2023-02-27T20:44:04.143Z,73.20
2023-02-27T20:46:31.452Z,73.20
2023-02-27T20:49:00.510Z,73.30
2023-02-27T20:51:31.630Z,74.00
2023-02-27T20:54:00.066Z,74.20
2023-02-27T20:56:41.131Z,73.10
2023-02-27T20:59:13.121Z,72.40
2023-02-27T21:01:41.263Z,71.80
2023-02-27T21:04:08.680Z,72.60
2023-02-27T21:06:36.014Z,72.20
2023-02-27T21:09:06.269Z,72.40
2023-02-27T21:11:34.608Z,73.00
2023-02-27T21:14:09.090Z,73.20
2023-02-27T21:16:37.026Z,73.40
2023-02-27T21:19:04.665Z,73.10
2023-02-27T21:21:33.890Z,73.80
2023-02-27T21:24:01.678Z,74.10
2023-02-27T21:26:34.928Z,74.30
2023-02-27T21:29:18.076Z,73.10
2023-02-27T21:31:49.016Z,72.80
2023-02-27T21:34:20.809Z,73.20
2023-02-27T21:36:49.966Z,73.60
2023-02-27T21:39:23.450Z,73.70
2023-02-27T21:41:50.899Z,73.70
2023-02-27T21:44:21.332Z,74.40
2023-02-27T21:46:48.602Z,75.30
2023-02-27T21:49:18.364Z,75.60
2023-02-27T21:51:46.911Z,74.80
2023-02-27T21:54:16.403Z,75.20
2023-02-27T21:56:44.980Z,74.10
2023-02-27T21:59:12.778Z,74.10
2023-02-27T22:01:40.654Z,74.80
2023-02-27T22:04:07.903Z,75.00
2023-02-27T22:06:35.771Z,75.30
2023-02-27T22:09:05.744Z,75.30
2023-02-27T22:11:34.303Z,75.20
2023-02-27T22:14:02.321Z,75.00
2023-02-27T22:16:29.571Z,74.80
2023-02-27T22:18:56.892Z,74.50
2023-02-27T22:21:25.762Z,74.60
2023-02-27T22:23:55.036Z,74.80
2023-02-27T22:26:25.277Z,75.00
2023-02-27T22:28:52.711Z,75.40
2023-02-27T22:31:22.882Z,75.20
2023-02-27T22:33:53.890Z,74.90
2023-02-27T22:36:26.971Z,75.00
2023-02-27T22:38:54.147Z,75.20
2023-02-27T22:41:24.544Z,75.50
2023-02-27T22:43:52.082Z,75.60
2023-02-27T22:46:32.408Z,75.30
2023-02-27T22:49:02.754Z,75.60
2023-02-27T22:51:31.404Z,75.80
2023-02-27T22:54:01.641Z,76.20
2023-02-27T22:56:29.332Z,76.40
2023-02-27T22:58:56.903Z,76.60
2023-02-27T23:01:28.391Z,76.80
2023-02-27T23:04:01.851Z,77.10
2023-02-27T23:06:31.914Z,77.20
2023-02-27T23:09:00.469Z,77.60
2023-02-27T23:11:28.355Z,77.90
2023-02-27T23:13:55.874Z,77.50
2023-02-27T23:16:24.883Z,77.10
2023-02-27T23:18:54.583Z,77.10
2023-02-27T23:21:29.546Z,76.80
2023-02-27T23:23:59.819Z,77.10
2023-02-27T23:26:28.456Z,77.10
2023-02-27T23:28:56.548Z,77.40
2023-02-27T23:31:24.035Z,77.30
2023-02-27T23:33:51.254Z,76.20
2023-02-27T23:36:18.516Z,76.30
2023-02-27T23:38:48.483Z,76.20
2023-02-27T23:41:20.721Z,76.80
2023-02-27T23:43:51.570Z,77.20
2023-02-27T23:46:19.322Z,77.20
2023-02-27T23:48:50.303Z,77.30
2023-02-27T23:51:17.906Z,77.30
2023-02-27T23:53:45.130Z,77.30
2023-02-27T23:56:14.846Z,77.20
2023-02-27T23:58:42.251Z,76.90
